sensor_id;sensor_type;location;lat;lon;timestamp;pressure;altitude;pressure_sealevel;temperature;humidity
50268;BME280;36153;50.960;6.220;2023-01-09T00:02:35;98490.91;;;11.25;62.29
50268;BME280;36153;50.960;6.220;2023-01-09T00:05:39;98503.72;;;11.35;62.04
50268;BME280;36153;50.960;6.220;2023-01-09T00:08:40;98503.59;;;11.39;62.19
50268;BME280;36153;50.960;6.220;2023-01-09T00:11:40;98494.66;;;11.14;62.94
50268;BME280;36153;50.960;6.220;2023-01-09T00:14:40;98495.94;;;11.33;62.60
50268;BME280;36153;50.960;6.220;2023-01-09T00:17:41;98505.59;;;11.28;62.29
50268;BME280;36153;50.960;6.220;2023-01-09T00:20:41;98507.16;;;11.35;61.84
50268;BME280;36153;50.960;6.220;2023-01-09T00:23:42;98511.28;;;11.46;62.17
50268;BME280;36153;50.960;6.220;2023-01-09T00:26:42;98514.97;;;11.35;62.52
50268;BME280;36153;50.960;6.220;2023-01-09T00:29:42;98514.97;;;11.35;62.46
50268;BME280;36153;50.960;6.220;2023-01-09T00:32:45;98512.34;;;11.37;62.04
50268;BME280;36153;50.960;6.220;2023-01-09T00:35:45;98508.22;;;11.28;62.47
50268;BME280;36153;50.960;6.220;2023-01-09T00:38:45;98516.06;;;11.26;62.47
50268;BME280;36153;50.960;6.220;2023-01-09T00:41:50;98516.91;;;11.27;62.76
50268;BME280;36153;50.960;6.220;2023-01-09T00:44:54;98512.28;;;11.01;62.91
50268;BME280;36153;50.960;6.220;2023-01-09T00:48:01;98519.16;;;11.05;62.86
50268;BME280;36153;50.960;6.220;2023-01-09T00:51:02;98522.69;;;11.02;63.10
50268;BME280;36153;50.960;6.220;2023-01-09T00:54:03;98525.56;;;10.90;63.29
50268;BME280;36153;50.960;6.220;2023-01-09T00:57:03;98516.84;;;10.92;63.03
50268;BME280;36153;50.960;6.220;2023-01-09T01:00:05;98525.34;;;10.99;62.72
50268;BME280;36153;50.960;6.220;2023-01-09T01:03:06;98528.91;;;10.95;62.54
50268;BME280;36153;50.960;6.220;2023-01-09T01:06:06;98522.09;;;10.89;62.54
50268;BME280;36153;50.960;6.220;2023-01-09T01:09:25;98528.97;;;10.92;61.84
50268;BME280;36153;50.960;6.220;2023-01-09T01:12:26;98531.78;;;10.83;62.15
50268;BME280;36153;50.960;6.220;2023-01-09T01:15:26;98536.06;;;10.85;62.06
50268;BME280;36153;50.960;6.220;2023-01-09T01:18:28;98544.97;;;10.75;62.10
50268;BME280;36153;50.960;6.220;2023-01-09T01:21:28;98552.75;;;10.75;62.04
50268;BME280;36153;50.960;6.220;2023-01-09T01:24:29;98549.44;;;10.68;62.60
50268;BME280;36153;50.960;6.220;2023-01-09T01:27:29;98546.13;;;10.60;62.36
50268;BME280;36153;50.960;6.220;2023-01-09T01:30:29;98551.22;;;10.66;62.32
50268;BME280;36153;50.960;6.220;2023-01-09T01:33:31;98558.28;;;10.59;62.11
50268;BME280;36153;50.960;6.220;2023-01-09T01:36:32;98562.00;;;10.46;62.73
50268;BME280;36153;50.960;6.220;2023-01-09T01:39:33;98562.88;;;10.45;62.63
50268;BME280;36153;50.960;6.220;2023-01-09T01:42:33;98566.31;;;10.47;62.79
50268;BME280;36153;50.960;6.220;2023-01-09T01:45:33;98569.50;;;10.62;62.45
50268;BME280;36153;50.960;6.220;2023-01-09T01:48:35;98577.19;;;10.68;62.20
50268;BME280;36153;50.960;6.220;2023-01-09T01:51:53;98578.63;;;10.83;62.09
50268;BME280;36153;50.960;6.220;2023-01-09T01:54:54;98577.09;;;10.72;61.61
50268;BME280;36153;50.960;6.220;2023-01-09T01:57:56;98568.41;;;10.73;61.79
50268;BME280;36153;50.960;6.220;2023-01-09T02:00:58;98577.34;;;10.60;61.78
50268;BME280;36153;50.960;6.220;2023-01-09T02:04:00;98577.47;;;10.54;61.92
50268;BME280;36153;50.960;6.220;2023-01-09T02:07:04;98581.97;;;10.46;61.88
50268;BME280;36153;50.960;6.220;2023-01-09T02:10:07;98582.84;;;10.45;61.78
50268;BME280;36153;50.960;6.220;2023-01-09T02:13:08;98591.66;;;10.37;62.18
50268;BME280;36153;50.960;6.220;2023-01-09T02:16:50;98596.72;;;10.44;62.09
50268;BME280;36153;50.960;6.220;2023-01-09T02:23:45;98597.84;;;10.75;61.44
50268;BME280;36153;50.960;6.220;2023-01-09T02:27:26;98610.31;;;10.59;61.29
50268;BME280;36153;50.960;6.220;2023-01-09T02:30:54;98615.41;;;10.64;61.16
50268;BME280;36153;50.960;6.220;2023-01-09T02:34:09;98609.44;;;10.61;61.06
50268;BME280;36153;50.960;6.220;2023-01-09T02:37:29;98615.84;;;10.43;61.53
50268;BME280;36153;50.960;6.220;2023-01-09T02:40:43;98620.84;;;10.52;60.97
50268;BME280;36153;50.960;6.220;2023-01-09T02:43:46;98632.50;;;10.29;61.26
50268;BME280;36153;50.960;6.220;2023-01-09T02:46:47;98627.31;;;10.29;61.13
50268;BME280;36153;50.960;6.220;2023-01-09T02:50:01;98623.97;;;10.21;60.80
50268;BME280;36153;50.960;6.220;2023-01-09T02:53:38;98620.78;;;10.05;61.53
50268;BME280;36153;50.960;6.220;2023-01-09T03:03:20;98614.84;;;9.98;61.16
50268;BME280;36153;50.960;6.220;2023-01-09T03:07:29;98606.88;;;10.06;60.91
50268;BME280;36153;50.960;6.220;2023-01-09T03:13:49;98596.69;;;9.95;60.99
50268;BME280;36153;50.960;6.220;2023-01-09T03:16:55;98604.56;;;9.89;60.98
50268;BME280;36153;50.960;6.220;2023-01-09T03:20:00;98593.25;;;9.93;60.67
50268;BME280;36153;50.960;6.220;2023-01-09T03:23:04;98604.59;;;9.87;60.80
50268;BME280;36153;50.960;6.220;2023-01-09T03:26:09;98604.63;;;9.86;60.55
50268;BME280;36153;50.960;6.220;2023-01-09T03:29:10;98606.59;;;9.71;61.10
50268;BME280;36153;50.960;6.220;2023-01-09T03:32:11;98607.38;;;9.77;60.99
50268;BME280;36153;50.960;6.220;2023-01-09T03:35:11;98602.34;;;9.64;61.03
50268;BME280;36153;50.960;6.220;2023-01-09T03:38:11;98600.69;;;9.62;61.39
50268;BME280;36153;50.960;6.220;2023-01-09T03:41:12;98609.31;;;9.64;60.96
50268;BME280;36153;50.960;6.220;2023-01-09T03:44:12;98610.97;;;9.68;60.99
50268;BME280;36153;50.960;6.220;2023-01-09T03:47:12;98608.41;;;9.66;60.91
50268;BME280;36153;50.960;6.220;2023-01-09T03:50:13;98611.88;;;9.65;60.53
50268;BME280;36153;50.960;6.220;2023-01-09T03:53:13;98608.47;;;9.63;60.57
50268;BME280;36153;50.960;6.220;2023-01-09T03:56:14;98628.47;;;9.56;60.57
50268;BME280;36153;50.960;6.220;2023-01-09T03:59:14;98624.97;;;9.59;60.13
50268;BME280;36153;50.960;6.220;2023-01-09T04:02:14;98635.25;;;9.65;60.31
50268;BME280;36153;50.960;6.220;2023-01-09T04:05:15;98627.22;;;9.81;59.98
50268;BME280;36153;50.960;6.220;2023-01-09T04:08:16;98628.91;;;9.85;59.60
50268;BME280;36153;50.960;6.220;2023-01-09T04:11:16;98633.09;;;9.92;59.52
50268;BME280;36153;50.960;6.220;2023-01-09T04:14:17;98629.56;;;9.96;59.64
50268;BME280;36153;50.960;6.220;2023-01-09T04:17:17;98632.28;;;9.90;59.18
50268;BME280;36153;50.960;6.220;2023-01-09T04:20:18;98636.44;;;10.00;59.54
50268;BME280;36153;50.960;6.220;2023-01-09T04:23:18;98632.19;;;9.96;59.33
50268;BME280;36153;50.960;6.220;2023-01-09T04:26:18;98645.72;;;10.17;59.52
50268;BME280;36153;50.960;6.220;2023-01-09T04:29:19;98646.38;;;10.28;58.69
50268;BME280;36153;50.960;6.220;2023-01-09T04:32:19;98636.78;;;10.33;58.86
50268;BME280;36153;50.960;6.220;2023-01-09T04:35:20;98646.28;;;10.37;58.92
50268;BME280;36153;50.960;6.220;2023-01-09T04:38:20;98644.25;;;10.53;58.50
50268;BME280;36153;50.960;6.220;2023-01-09T04:41:21;98645.44;;;10.37;59.03
50268;BME280;36153;50.960;6.220;2023-01-09T04:44:39;98642.47;;;10.55;58.18
50268;BME280;36153;50.960;6.220;2023-01-09T04:47:40;98640.66;;;10.61;58.13
50268;BME280;36153;50.960;6.220;2023-01-09T04:50:40;98638.72;;;10.72;57.99
50268;BME280;36153;50.960;6.220;2023-01-09T04:53:41;98643.28;;;10.57;58.24
50268;BME280;36153;50.960;6.220;2023-01-09T04:56:41;98640.66;;;10.61;58.37
50268;BME280;36153;50.960;6.220;2023-01-09T04:59:41;98644.13;;;10.61;58.35
50268;BME280;36153;50.960;6.220;2023-01-09T05:02:42;98640.53;;;10.67;58.05
50268;BME280;36153;50.960;6.220;2023-01-09T05:05:43;98641.56;;;10.58;58.41
50268;BME280;36153;50.960;6.220;2023-01-09T05:08:44;98641.34;;;10.70;58.08
50268;BME280;36153;50.960;6.220;2023-01-09T05:11:44;98640.34;;;10.78;57.82
50268;BME280;36153;50.960;6.220;2023-01-09T05:14:44;98645.97;;;11.00;57.41
50268;BME280;36153;50.960;6.220;2023-01-09T05:17:45;98648.84;;;10.86;57.62
50268;BME280;36153;50.960;6.220;2023-01-09T05:20:45;98649.19;;;11.13;57.33
50268;BME280;36153;50.960;6.220;2023-01-09T05:23:45;98658.44;;;10.84;57.89
50268;BME280;36153;50.960;6.220;2023-01-09T05:26:46;98669.72;;;10.83;58.14
50268;BME280;36153;50.960;6.220;2023-01-09T05:29:46;98670.72;;;10.75;57.92
50268;BME280;36153;50.960;6.220;2023-01-09T05:32:46;98675.59;;;10.94;57.66
50268;BME280;36153;50.960;6.220;2023-01-09T05:35:47;98661.66;;;10.95;57.73
50268;BME280;36153;50.960;6.220;2023-01-09T05:38:47;98673.16;;;10.85;58.10
50268;BME280;36153;50.960;6.220;2023-01-09T05:41:47;98678.81;;;11.07;57.36
50268;BME280;36153;50.960;6.220;2023-01-09T05:44:48;98686.72;;;11.01;57.57
50268;BME280;36153;50.960;6.220;2023-01-09T05:47:48;98678.91;;;11.02;57.55
50268;BME280;36153;50.960;6.220;2023-01-09T05:50:48;98675.41;;;11.03;57.42
50268;BME280;36153;50.960;6.220;2023-01-09T05:53:49;98666.28;;;10.81;57.93
50268;BME280;36153;50.960;6.220;2023-01-09T05:56:49;98671.63;;;10.74;58.22
50268;BME280;36153;50.960;6.220;2023-01-09T05:59:50;98667.06;;;10.86;57.67
50268;BME280;36153;50.960;6.220;2023-01-09T06:02:50;98679.31;;;10.81;57.70
50268;BME280;36153;50.960;6.220;2023-01-09T06:05:50;98667.88;;;10.88;57.94
50268;BME280;36153;50.960;6.220;2023-01-09T06:08:51;98668.16;;;10.74;57.77
50268;BME280;36153;50.960;6.220;2023-01-09T06:11:51;98672.06;;;10.97;57.11
50268;BME280;36153;50.960;6.220;2023-01-09T06:14:53;98674.81;;;10.89;57.47
50268;BME280;36153;50.960;6.220;2023-01-09T06:17:54;98670.31;;;10.97;57.38
50268;BME280;36153;50.960;6.220;2023-01-09T06:20:54;98667.66;;;11.00;56.84
50268;BME280;36153;50.960;6.220;2023-01-09T06:23:54;98667.00;;;10.89;57.22
50268;BME280;36153;50.960;6.220;2023-01-09T06:26:56;98672.78;;;11.03;56.84
50268;BME280;36153;50.960;6.220;2023-01-09T06:29:56;98670.19;;;11.03;56.52
50268;BME280;36153;50.960;6.220;2023-01-09T06:32:56;98677.97;;;11.05;56.70
50268;BME280;36153;50.960;6.220;2023-01-09T06:35:57;98675.53;;;10.97;56.97
50268;BME280;36153;50.960;6.220;2023-01-09T06:38:57;98670.50;;;11.32;56.18
50268;BME280;36153;50.960;6.220;2023-01-09T06:41:57;98672.56;;;11.16;56.42
50268;BME280;36153;50.960;6.220;2023-01-09T06:44:58;98669.94;;;11.16;56.68
50268;BME280;36153;50.960;6.220;2023-01-09T06:47:58;98660.31;;;11.21;56.09
50268;BME280;36153;50.960;6.220;2023-01-09T06:50:58;98669.09;;;11.15;55.82
50268;BME280;36153;50.960;6.220;2023-01-09T06:53:59;98663.69;;;11.24;56.03
50268;BME280;36153;50.960;6.220;2023-01-09T06:56:59;98662.72;;;11.30;55.91
50268;BME280;36153;50.960;6.220;2023-01-09T07:00:00;98664.56;;;11.25;56.10
50268;BME280;36153;50.960;6.220;2023-01-09T07:03:00;98660.41;;;11.16;56.10
50268;BME280;36153;50.960;6.220;2023-01-09T07:06:01;98658.63;;;11.18;56.03
50268;BME280;36153;50.960;6.220;2023-01-09T07:09:01;98671.84;;;11.07;56.45
50268;BME280;36153;50.960;6.220;2023-01-09T07:12:02;98671.53;;;11.23;56.01
50268;BME280;36153;50.960;6.220;2023-01-09T07:15:02;98658.44;;;11.27;56.12
50268;BME280;36153;50.960;6.220;2023-01-09T07:18:03;98657.53;;;11.28;55.70
50268;BME280;36153;50.960;6.220;2023-01-09T07:21:05;98668.91;;;11.24;55.85
50268;BME280;36153;50.960;6.220;2023-01-09T07:24:05;98661.78;;;11.33;56.21
50268;BME280;36153;50.960;6.220;2023-01-09T07:27:06;98670.69;;;11.22;56.08
50268;BME280;36153;50.960;6.220;2023-01-09T07:30:06;98662.66;;;11.33;56.31
50268;BME280;36153;50.960;6.220;2023-01-09T07:33:07;98668.13;;;11.21;56.32
50268;BME280;36153;50.960;6.220;2023-01-09T07:36:08;98671.41;;;11.29;56.14
50268;BME280;36153;50.960;6.220;2023-01-09T07:39:08;98667.94;;;11.30;56.51
50268;BME280;36153;50.960;6.220;2023-01-09T07:42:09;98675.00;;;11.23;56.47
50268;BME280;36153;50.960;6.220;2023-01-09T07:45:09;98690.69;;;11.22;56.55
50268;BME280;36153;50.960;6.220;2023-01-09T07:48:10;98697.41;;;11.32;56.15
50268;BME280;36153;50.960;6.220;2023-01-09T07:51:10;98699.19;;;11.30;56.21
50268;BME280;36153;50.960;6.220;2023-01-09T07:54:11;98694.63;;;11.41;56.21
50268;BME280;36153;50.960;6.220;2023-01-09T07:57:12;98707.72;;;11.37;56.34
50268;BME280;36153;50.960;6.220;2023-01-09T08:00:13;98708.53;;;11.40;56.07
50268;BME280;36153;50.960;6.220;2023-01-09T08:03:13;98706.22;;;11.25;56.47
50268;BME280;36153;50.960;6.220;2023-01-09T08:06:13;98711.25;;;11.34;55.99
50268;BME280;36153;50.960;6.220;2023-01-09T08:09:14;98723.19;;;11.44;56.12
50268;BME280;36153;50.960;6.220;2023-01-09T08:12:14;98717.41;;;11.32;56.31
50268;BME280;36153;50.960;6.220;2023-01-09T08:15:15;98719.72;;;11.46;56.07
50268;BME280;36153;50.960;6.220;2023-01-09T08:18:16;98732.84;;;11.39;56.29
50268;BME280;36153;50.960;6.220;2023-01-09T08:21:16;98727.13;;;11.64;55.68
50268;BME280;36153;50.960;6.220;2023-01-09T08:24:17;98732.06;;;11.34;56.35
50268;BME280;36153;50.960;6.220;2023-01-09T08:27:17;98732.78;;;11.44;56.02
50268;BME280;36153;50.960;6.220;2023-01-09T08:30:18;98753.81;;;11.75;55.72
50268;BME280;36153;50.960;6.220;2023-01-09T08:33:18;98757.16;;;11.82;55.57
50268;BME280;36153;50.960;6.220;2023-01-09T08:36:19;98756.47;;;11.74;55.58
50268;BME280;36153;50.960;6.220;2023-01-09T08:39:19;98762.44;;;11.79;55.75
50268;BME280;36153;50.960;6.220;2023-01-09T08:42:19;98761.44;;;11.42;56.33
50268;BME280;36153;50.960;6.220;2023-01-09T08:45:38;98762.09;;;11.54;56.23
50268;BME280;36153;50.960;6.220;2023-01-09T08:48:57;98764.41;;;11.69;55.89
50268;BME280;36153;50.960;6.220;2023-01-09T08:51:57;98778.31;;;11.68;56.23
50268;BME280;36153;50.960;6.220;2023-01-09T08:54:58;98789.34;;;11.81;55.98
50268;BME280;36153;50.960;6.220;2023-01-09T08:57:58;98790.31;;;11.75;55.86
50268;BME280;36153;50.960;6.220;2023-01-09T09:00:58;98800.91;;;11.68;55.99
50268;BME280;36153;50.960;6.220;2023-01-09T09:03:59;98804.03;;;11.41;56.63
50268;BME280;36153;50.960;6.220;2023-01-09T09:07:00;98807.50;;;11.86;56.00
50268;BME280;36153;50.960;6.220;2023-01-09T09:10:00;98811.31;;;11.69;56.18
50268;BME280;36153;50.960;6.220;2023-01-09T09:13:01;98808.56;;;11.75;55.67
50268;BME280;36153;50.960;6.220;2023-01-09T09:16:01;98819.78;;;12.21;55.27
50268;BME280;36153;50.960;6.220;2023-01-09T09:19:01;98814.72;;;12.13;54.73
50268;BME280;36153;50.960;6.220;2023-01-09T09:22:02;98836.59;;;12.08;55.08
50268;BME280;36153;50.960;6.220;2023-01-09T09:25:02;98825.31;;;12.07;55.37
50268;BME280;36153;50.960;6.220;2023-01-09T09:28:04;98823.22;;;11.81;55.94
50268;BME280;36153;50.960;6.220;2023-01-09T09:31:05;98825.50;;;11.98;55.80
50268;BME280;36153;50.960;6.220;2023-01-09T09:34:06;98831.81;;;11.86;56.02
50268;BME280;36153;50.960;6.220;2023-01-09T09:37:07;98836.47;;;11.72;56.31
50268;BME280;36153;50.960;6.220;2023-01-09T09:40:15;98846.97;;;11.67;56.22
50268;BME280;36153;50.960;6.220;2023-01-09T09:47:05;98853.72;;;11.76;56.09
50268;BME280;36153;50.960;6.220;2023-01-09T09:53:35;98860.88;;;12.11;55.19
50268;BME280;36153;50.960;6.220;2023-01-09T09:56:47;98868.88;;;12.02;55.67
50268;BME280;36153;50.960;6.220;2023-01-09T09:59:49;98874.06;;;12.04;55.38
50268;BME280;36153;50.960;6.220;2023-01-09T10:03:02;98877.44;;;12.09;55.31
50268;BME280;36153;50.960;6.220;2023-01-09T10:06:11;98890.13;;;12.26;55.19
50268;BME280;36153;50.960;6.220;2023-01-09T10:12:38;98890.91;;;12.31;54.70
50268;BME280;36153;50.960;6.220;2023-01-09T10:19:26;98901.19;;;11.95;55.14
50268;BME280;36153;50.960;6.220;2023-01-09T10:22:58;98906.84;;;11.70;55.52
50268;BME280;36153;50.960;6.220;2023-01-09T10:26:23;98906.69;;;11.79;55.38
50268;BME280;36153;50.960;6.220;2023-01-09T10:32:38;98889.78;;;12.01;54.70
50268;BME280;36153;50.960;6.220;2023-01-09T10:38:57;98890.13;;;12.26;54.14
50268;BME280;36153;50.960;6.220;2023-01-09T10:45:26;98903.16;;;12.26;54.11
50268;BME280;36153;50.960;6.220;2023-01-09T10:48:32;98905.06;;;12.18;54.75
50268;BME280;36153;50.960;6.220;2023-01-09T10:51:48;98914.75;;;12.12;53.54
50268;BME280;36153;50.960;6.220;2023-01-09T10:54:57;98915.56;;;11.69;54.49
50268;BME280;36153;50.960;6.220;2023-01-09T10:58:10;98911.84;;;12.28;54.13
50268;BME280;36153;50.960;6.220;2023-01-09T11:01:11;98918.22;;;12.54;52.99
50268;BME280;36153;50.960;6.220;2023-01-09T11:04:24;98922.38;;;12.64;52.88
50268;BME280;36153;50.960;6.220;2023-01-09T11:07:28;98928.63;;;12.57;52.24
50268;BME280;36153;50.960;6.220;2023-01-09T11:14:03;98942.84;;;12.42;52.82
50268;BME280;36153;50.960;6.220;2023-01-09T11:17:04;98935.44;;;12.22;52.64
50268;BME280;36153;50.960;6.220;2023-01-09T11:20:12;98929.63;;;12.07;53.05
50268;BME280;36153;50.960;6.220;2023-01-09T11:23:32;98933.84;;;11.66;53.50
50268;BME280;36153;50.960;6.220;2023-01-09T11:26:32;98933.16;;;12.05;53.48
50268;BME280;36153;50.960;6.220;2023-01-09T11:29:34;98936.69;;;12.02;53.94
50268;BME280;36153;50.960;6.220;2023-01-09T11:32:34;98936.91;;;11.88;53.94
50268;BME280;36153;50.960;6.220;2023-01-09T11:35:35;98948.28;;;11.84;54.06
50268;BME280;36153;50.960;6.220;2023-01-09T11:38:56;98947.13;;;12.02;53.42
50268;BME280;36153;50.960;6.220;2023-01-09T11:42:00;98946.97;;;12.10;53.71
50268;BME280;36153;50.960;6.220;2023-01-09T11:45:01;98948.16;;;11.92;53.48
50268;BME280;36153;50.960;6.220;2023-01-09T11:48:15;98947.53;;;12.26;53.24
50268;BME280;36153;50.960;6.220;2023-01-09T11:51:18;98969.84;;;11.97;53.40
50268;BME280;36153;50.960;6.220;2023-01-09T11:54:30;98967.41;;;11.86;54.17
50268;BME280;36153;50.960;6.220;2023-01-09T11:57:32;98963.81;;;11.92;54.13
50268;BME280;36153;50.960;6.220;2023-01-09T12:34:46;99010.88;;;11.84;55.82
50268;BME280;36153;50.960;6.220;2023-01-09T12:38:07;99013.44;;;11.87;55.29
50268;BME280;36153;50.960;6.220;2023-01-09T12:44:43;99017.38;;;12.11;55.04
50268;BME280;36153;50.960;6.220;2023-01-09T12:47:48;99026.34;;;11.93;55.26
50268;BME280;36153;50.960;6.220;2023-01-09T12:51:17;99030.34;;;11.63;55.45
50268;BME280;36153;50.960;6.220;2023-01-09T12:57:30;99027.81;;;11.60;55.60
50268;BME280;36153;50.960;6.220;2023-01-09T13:00:39;99039.22;;;11.53;55.78
50268;BME280;36153;50.960;6.220;2023-01-09T13:07:29;99040.16;;;11.47;56.21
50268;BME280;36153;50.960;6.220;2023-01-09T13:10:40;99049.44;;;11.65;55.87
50268;BME280;36153;50.960;6.220;2023-01-09T13:13:54;99065.94;;;11.66;55.96
50268;BME280;36153;50.960;6.220;2023-01-09T13:16:57;99058.56;;;11.36;56.51
50268;BME280;36153;50.960;6.220;2023-01-09T13:19:57;99067.03;;;11.51;56.25
50268;BME280;36153;50.960;6.220;2023-01-09T13:22:59;99074.31;;;11.30;56.32
50268;BME280;36153;50.960;6.220;2023-01-09T13:26:04;99080.34;;;11.32;56.51
50268;BME280;36153;50.960;6.220;2023-01-09T13:29:11;99081.06;;;11.42;56.45
50268;BME280;36153;50.960;6.220;2023-01-09T13:35:46;99082.66;;;11.51;56.21
50268;BME280;36153;50.960;6.220;2023-01-09T13:38:47;99088.13;;;11.34;56.36
50268;BME280;36153;50.960;6.220;2023-01-09T13:41:55;99092.34;;;11.42;56.36
50268;BME280;36153;50.960;6.220;2023-01-09T13:45:29;99100.16;;;11.44;56.48
50268;BME280;36153;50.960;6.220;2023-01-09T13:48:39;99103.66;;;11.41;56.39
50268;BME280;36153;50.960;6.220;2023-01-09T14:04:36;99111.44;;;11.44;56.78
50268;BME280;36153;50.960;6.220;2023-01-09T14:07:47;99119.50;;;11.26;57.05
50268;BME280;36153;50.960;6.220;2023-01-09T14:10:51;99117.78;;;11.25;57.38
50268;BME280;36153;50.960;6.220;2023-01-09T14:14:01;99136.25;;;11.08;57.18
50268;BME280;36153;50.960;6.220;2023-01-09T14:17:14;99137.69;;;11.29;57.25
50268;BME280;36153;50.960;6.220;2023-01-09T14:20:28;99140.31;;;11.29;56.93
50268;BME280;36153;50.960;6.220;2023-01-09T14:23:35;99149.00;;;11.28;57.50
50268;BME280;36153;50.960;6.220;2023-01-09T14:26:45;99159.59;;;11.14;57.84
50268;BME280;36153;50.960;6.220;2023-01-09T14:29:46;99170.31;;;10.88;57.92
50268;BME280;36153;50.960;6.220;2023-01-09T14:36:18;99182.19;;;11.14;57.88
50268;BME280;36153;50.960;6.220;2023-01-09T14:39:21;99186.66;;;11.01;57.67
50268;BME280;36153;50.960;6.220;2023-01-09T14:42:26;99202.44;;;10.85;57.87
50268;BME280;36153;50.960;6.220;2023-01-09T14:45:29;99200.56;;;10.97;57.82
50268;BME280;36153;50.960;6.220;2023-01-09T14:48:31;99201.41;;;11.02;57.12
50268;BME280;36153;50.960;6.220;2023-01-09T14:51:36;99220.63;;;10.91;57.72
50268;BME280;36153;50.960;6.220;2023-01-09T14:54:41;99225.81;;;10.93;58.01
50268;BME280;36153;50.960;6.220;2023-01-09T14:57:42;99237.97;;;10.91;57.86
50268;BME280;36153;50.960;6.220;2023-01-09T15:00:48;99244.84;;;10.98;58.06
50268;BME280;36153;50.960;6.220;2023-01-09T15:03:52;99255.34;;;10.89;57.44
50268;BME280;36153;50.960;6.220;2023-01-09T15:06:57;99257.09;;;10.90;58.08
50268;BME280;36153;50.960;6.220;2023-01-09T15:10:02;99262.28;;;10.87;58.35
50268;BME280;36153;50.960;6.220;2023-01-09T15:13:05;99271.13;;;10.73;58.67
50268;BME280;36153;50.960;6.220;2023-01-09T15:16:15;99281.53;;;10.72;59.34
50268;BME280;36153;50.960;6.220;2023-01-09T15:19:17;99277.06;;;10.86;58.29
50268;BME280;36153;50.960;6.220;2023-01-09T15:22:29;99290.16;;;10.77;58.77
50268;BME280;36153;50.960;6.220;2023-01-09T15:25:34;99296.16;;;10.84;58.39
50268;BME280;36153;50.960;6.220;2023-01-09T15:28:40;99300.56;;;10.79;58.26
50268;BME280;36153;50.960;6.220;2023-01-09T15:31:43;99308.38;;;10.79;58.69
50268;BME280;36153;50.960;6.220;2023-01-09T15:34:47;99303.34;;;10.55;59.09
50268;BME280;36153;50.960;6.220;2023-01-09T15:37:51;99306.84;;;10.53;59.27
50268;BME280;36153;50.960;6.220;2023-01-09T15:40:57;99305.03;;;10.63;59.18
50268;BME280;36153;50.960;6.220;2023-01-09T15:43:58;99302.31;;;10.76;59.05
50268;BME280;36153;50.960;6.220;2023-01-09T15:46:59;99325.94;;;10.49;59.33
50268;BME280;36153;50.960;6.220;2023-01-09T15:50:02;99323.28;;;10.58;59.04
50268;BME280;36153;50.960;6.220;2023-01-09T15:53:03;99337.19;;;10.54;59.47
50268;BME280;36153;50.960;6.220;2023-01-09T15:59:23;99340.59;;;10.64;58.61
50268;BME280;36153;50.960;6.220;2023-01-09T16:02:24;99353.50;;;10.78;58.62
50268;BME280;36153;50.960;6.220;2023-01-09T16:05:47;99360.44;;;10.79;57.98
50268;BME280;36153;50.960;6.220;2023-01-09T16:08:49;99360.69;;;10.41;58.74
50268;BME280;36153;50.960;6.220;2023-01-09T16:11:54;99361.38;;;10.68;58.14
50268;BME280;36153;50.960;6.220;2023-01-09T16:14:58;99375.25;;;10.70;58.33
50268;BME280;36153;50.960;6.220;2023-01-09T16:21:31;99381.53;;;10.35;58.76
50268;BME280;36153;50.960;6.220;2023-01-09T16:24:41;99395.38;;;10.31;59.22
50268;BME280;36153;50.960;6.220;2023-01-09T16:27:41;99394.53;;;10.32;59.12
50268;BME280;36153;50.960;6.220;2023-01-09T16:30:52;99392.81;;;10.28;59.18
50268;BME280;36153;50.960;6.220;2023-01-09T16:33:57;99404.09;;;10.30;58.95
50268;BME280;36153;50.960;6.220;2023-01-09T16:36:58;99410.19;;;10.20;59.19
50268;BME280;36153;50.960;6.220;2023-01-09T16:43:08;99420.53;;;10.31;58.87
50268;BME280;36153;50.960;6.220;2023-01-09T16:46:11;99428.31;;;10.45;58.60
50268;BME280;36153;50.960;6.220;2023-01-09T16:49:23;99432.63;;;10.55;58.51
50268;BME280;36153;50.960;6.220;2023-01-09T16:52:25;99444.69;;;10.65;58.22
50268;BME280;36153;50.960;6.220;2023-01-09T16:55:26;99443.84;;;10.60;58.83
50268;BME280;36153;50.960;6.220;2023-01-09T16:58:31;99449.91;;;10.59;59.55
50268;BME280;36153;50.960;6.220;2023-01-09T17:01:33;99455.97;;;10.63;59.95
50268;BME280;36153;50.960;6.220;2023-01-09T17:04:33;99465.41;;;10.81;59.58
50268;BME280;36153;50.960;6.220;2023-01-09T17:07:33;99463.66;;;10.83;59.02
50268;BME280;36153;50.960;6.220;2023-01-09T17:10:34;99462.78;;;10.84;59.31
50268;BME280;36153;50.960;6.220;2023-01-09T17:13:34;99468.97;;;10.70;59.42
50268;BME280;36153;50.960;6.220;2023-01-09T17:16:35;99489.81;;;10.63;59.55
50268;BME280;36153;50.960;6.220;2023-01-09T17:19:35;99479.34;;;10.69;59.60
50268;BME280;36153;50.960;6.220;2023-01-09T17:22:36;99486.25;;;10.78;59.29
50268;BME280;36153;50.960;6.220;2023-01-09T17:25:37;99494.97;;;10.73;60.16
50268;BME280;36153;50.960;6.220;2023-01-09T17:28:56;99491.50;;;10.68;60.19
50268;BME280;36153;50.960;6.220;2023-01-09T17:31:57;99504.56;;;10.62;60.92
50268;BME280;36153;50.960;6.220;2023-01-09T17:34:57;99509.66;;;10.82;60.49
50268;BME280;36153;50.960;6.220;2023-01-09T17:37:57;99508.78;;;10.83;59.97
50268;BME280;36153;50.960;6.220;2023-01-09T17:40:58;99520.91;;;10.87;59.99
50268;BME280;36153;50.960;6.220;2023-01-09T17:43:58;99521.13;;;10.46;60.77
50268;BME280;36153;50.960;6.220;2023-01-09T17:47:00;99529.63;;;10.82;60.27
50268;BME280;36153;50.960;6.220;2023-01-09T17:50:01;99521.91;;;10.66;60.24
50268;BME280;36153;50.960;6.220;2023-01-09T17:53:02;99533.22;;;10.53;60.59
50268;BME280;36153;50.960;6.220;2023-01-09T17:56:02;99541.03;;;10.53;61.42
50268;BME280;36153;50.960;6.220;2023-01-09T17:59:04;99550.59;;;10.51;61.91
50268;BME280;36153;50.960;6.220;2023-01-09T18:02:17;99559.28;;;10.47;62.63
50268;BME280;36153;50.960;6.220;2023-01-09T18:05:19;99559.22;;;10.62;61.94
50268;BME280;36153;50.960;6.220;2023-01-09T18:08:19;99568.78;;;10.48;62.23
50268;BME280;36153;50.960;6.220;2023-01-09T18:11:20;99580.03;;;10.59;62.32